createdAt,value
2022-10-17T00:09:26.288Z,30.40
2022-10-17T00:19:39.308Z,27.90
2022-10-17T00:29:56.308Z,27.60
2022-10-17T00:40:09.327Z,29.70
2022-10-17T00:50:22.311Z,28.90
2022-10-17T01:00:35.319Z,25.20
2022-10-17T01:11:04.344Z,28.50
2022-10-17T01:21:33.345Z,31.90
2022-10-17T01:31:52.361Z,33.20
2022-10-17T01:42:25.685Z,31.60
2022-10-17T01:52:46.380Z,29.70
2022-10-17T02:03:02.361Z,26.60
2022-10-17T02:13:25.367Z,23.20
2022-10-17T02:23:43.393Z,27.00
2022-10-17T02:34:26.393Z,25.10
2022-10-17T02:44:39.405Z,22.40
2022-10-17T02:55:02.401Z,22.10
2022-10-17T03:05:16.398Z,21.20
2022-10-17T03:15:29.427Z,26.40
2022-10-17T03:25:42.408Z,22.50
2022-10-17T03:35:55.440Z,23.60
2022-10-17T03:46:08.483Z,25.90
2022-10-17T03:56:26.470Z,27.40
2022-10-17T04:06:39.430Z,24.80
2022-10-17T04:16:52.468Z,27.10
2022-10-17T04:27:11.467Z,25.80
2022-10-17T04:37:24.475Z,27.60
2022-10-17T04:47:37.476Z,25.80
2022-10-17T04:57:50.507Z,24.90
2022-10-17T05:08:03.497Z,22.10
2022-10-17T05:18:16.504Z,30.10
2022-10-17T05:28:29.543Z,25.00
2022-10-17T05:38:42.533Z,25.30
2022-10-17T05:48:55.514Z,24.70
2022-10-17T05:59:08.717Z,26.60
2022-10-17T06:09:21.545Z,26.60
2022-10-17T06:19:34.556Z,33.50
2022-10-17T06:29:47.540Z,36.20
2022-10-17T06:40:07.580Z,36.30
2022-10-17T06:50:20.587Z,36.60
2022-10-17T07:00:34.744Z,37.40
2022-10-17T07:10:47.577Z,37.40
2022-10-17T07:21:01.588Z,36.60
2022-10-17T07:31:16.589Z,34.50
2022-10-17T07:41:29.596Z,34.30
2022-10-17T07:51:42.658Z,31.60
2022-10-17T08:01:55.659Z,29.70
2022-10-17T08:12:08.637Z,28.00
2022-10-17T08:22:21.872Z,25.80
2022-10-17T08:32:35.650Z,16.70
2022-10-17T08:43:13.638Z,17.90
2022-10-17T08:53:37.672Z,15.40
2022-10-17T09:04:05.650Z,15.30
2022-10-17T09:14:44.692Z,14.20
2022-10-17T09:25:06.660Z,14.30
2022-10-17T09:35:21.711Z,12.45
2022-10-17T09:45:45.699Z,12.40
2022-10-17T09:56:03.708Z,12.60
2022-10-17T10:06:22.709Z,12.30
2022-10-17T10:16:39.743Z,12.00
2022-10-17T10:26:53.737Z,10.70
2022-10-17T10:37:16.235Z,9.80
2022-10-17T10:47:33.737Z,8.90
2022-10-17T10:57:46.768Z,9.40
2022-10-17T11:08:31.748Z,8.70
2022-10-17T11:18:51.780Z,9.00
2022-10-17T11:29:05.812Z,10.00
2022-10-17T11:39:38.858Z,8.80
2022-10-17T11:49:56.914Z,10.00
2022-10-17T12:00:27.786Z,9.50
2022-10-17T12:10:53.821Z,10.70
2022-10-17T12:21:07.831Z,9.90
2022-10-17T12:31:23.841Z,10.40
2022-10-17T12:41:45.869Z,8.40
2022-10-17T12:52:31.859Z,9.20
2022-10-17T13:02:44.849Z,8.20
2022-10-17T13:12:57.863Z,7.80
2022-10-17T13:23:11.880Z,8.10
2022-10-17T13:33:42.879Z,6.80
2022-10-17T13:44:02.923Z,7.50
2022-10-17T13:54:36.901Z,6.70
2022-10-17T14:05:15.697Z,6.80
2022-10-17T14:15:23.926Z,7.00
2022-10-17T14:25:36.955Z,7.00
2022-10-17T14:36:09.922Z,6.50
2022-10-17T14:46:31.939Z,6.95
2022-10-17T14:56:49.966Z,7.20
2022-10-17T15:07:02.947Z,8.60
2022-10-17T15:17:25.974Z,7.90
2022-10-17T15:27:39.964Z,8.10
2022-10-17T15:37:53.974Z,9.40
2022-10-17T15:48:12.979Z,9.70
2022-10-17T15:58:27.009Z,11.00
2022-10-17T16:08:39.987Z,10.10
2022-10-17T16:18:53.011Z,10.60
2022-10-17T16:29:10.149Z,9.10
